KPAH

Barkley Regional Airport

Paducah, Kentucky, USA
METAR KPAH 231453Z 02003KT 10SM CLR 27/19 A3012 RMK AO2 SLP196 T02720194 51013
Observed Flight Rules
May-23 @ 14:53 UTC (17 minutes ago) Visual Flight Rules
Wind Visibility Clouds
20° at 3 knots 10 miles
  • Clear skies
Temperatures Readings
Current 27°C / 81°F
Dewpoint 19°C / 66°F
Humidity 62%
Altimeter 30.12" Hg
Pressure 1019.6 hPa
Elevation 119
METAR KPAH 231453Z 02003KT 10SM CLR 27/19 A3012 RMK AO2 SLP196 T02720194 51013
Observed Flight Rules
May-23 @ 14:53 UTC
(17 minutes ago)
VFR
Wind Visibility
20° at 3 knots 10 miles
Clouds
  • Clear skies
Temperature Dewpoint
27°C / 81°F 19°C / 66°F
Humidity Altimeter Pressure
62% 30.12" Hg 1019.6 hPa